sensor_id;sensor_type;location;lat;lon;timestamp;P1;durP1;ratioP1;P2;durP2;ratioP2
43048;SDS011;28673;44.412;11.918;2023-08-17T00:02:19;12.48;;;8.75;;
43048;SDS011;28673;44.412;11.918;2023-08-17T00:04:45;12.43;;;9.60;;
43048;SDS011;28673;44.412;11.918;2023-08-17T00:07:11;9.60;;;8.27;;
43048;SDS011;28673;44.412;11.918;2023-08-17T00:09:36;17.95;;;9.90;;
43048;SDS011;28673;44.412;11.918;2023-08-17T00:12:02;14.80;;;10.13;;
43048;SDS011;28673;44.412;11.918;2023-08-17T00:14:29;11.82;;;10.25;;
43048;SDS011;28673;44.412;11.918;2023-08-17T00:16:55;12.32;;;9.85;;
43048;SDS011;28673;44.412;11.918;2023-08-17T00:19:21;18.80;;;10.10;;
43048;SDS011;28673;44.412;11.918;2023-08-17T00:21:47;13.35;;;9.88;;
43048;SDS011;28673;44.412;11.918;2023-08-17T00:24:13;12.68;;;10.18;;
43048;SDS011;28673;44.412;11.918;2023-08-17T00:26:39;12.05;;;10.63;;
43048;SDS011;28673;44.412;11.918;2023-08-17T00:29:05;11.43;;;10.23;;
43048;SDS011;28673;44.412;11.918;2023-08-17T00:31:31;20.23;;;11.23;;
43048;SDS011;28673;44.412;11.918;2023-08-17T00:33:56;17.25;;;10.27;;
43048;SDS011;28673;44.412;11.918;2023-08-17T00:36:22;13.07;;;10.45;;
43048;SDS011;28673;44.412;11.918;2023-08-17T00:38:49;12.65;;;10.55;;
43048;SDS011;28673;44.412;11.918;2023-08-17T00:41:14;14.25;;;10.88;;
43048;SDS011;28673;44.412;11.918;2023-08-17T00:43:40;15.48;;;10.48;;
43048;SDS011;28673;44.412;11.918;2023-08-17T00:46:06;14.05;;;10.70;;
43048;SDS011;28673;44.412;11.918;2023-08-17T00:48:34;13.77;;;10.32;;
43048;SDS011;28673;44.412;11.918;2023-08-17T00:51:00;14.68;;;10.60;;
43048;SDS011;28673;44.412;11.918;2023-08-17T00:53:27;17.08;;;11.10;;
43048;SDS011;28673;44.412;11.918;2023-08-17T00:55:57;20.07;;;11.87;;
43048;SDS011;28673;44.412;11.918;2023-08-17T00:58:26;13.02;;;10.98;;
43048;SDS011;28673;44.412;11.918;2023-08-17T01:00:52;13.98;;;11.32;;
43048;SDS011;28673;44.412;11.918;2023-08-17T01:03:18;16.65;;;11.40;;
43048;SDS011;28673;44.412;11.918;2023-08-17T01:05:46;13.45;;;11.38;;
43048;SDS011;28673;44.412;11.918;2023-08-17T01:08:12;19.92;;;11.60;;
43048;SDS011;28673;44.412;11.918;2023-08-17T01:10:43;15.35;;;11.25;;
43048;SDS011;28673;44.412;11.918;2023-08-17T01:13:18;15.33;;;11.20;;
43048;SDS011;28673;44.412;11.918;2023-08-17T01:15:52;17.27;;;12.07;;
43048;SDS011;28673;44.412;11.918;2023-08-17T01:18:29;15.85;;;10.88;;
43048;SDS011;28673;44.412;11.918;2023-08-17T01:20:57;13.43;;;10.80;;
43048;SDS011;28673;44.412;11.918;2023-08-17T01:23:23;14.52;;;10.77;;
43048;SDS011;28673;44.412;11.918;2023-08-17T01:25:49;14.88;;;11.35;;
43048;SDS011;28673;44.412;11.918;2023-08-17T01:28:16;12.77;;;11.02;;
43048;SDS011;28673;44.412;11.918;2023-08-17T01:31:28;13.57;;;10.85;;
43048;SDS011;28673;44.412;11.918;2023-08-17T01:33:35;13.32;;;11.65;;
43048;SDS011;28673;44.412;11.918;2023-08-17T01:36:26;12.70;;;11.48;;
43048;SDS011;28673;44.412;11.918;2023-08-17T01:38:58;17.73;;;12.00;;
43048;SDS011;28673;44.412;11.918;2023-08-17T01:41:26;12.77;;;11.32;;
43048;SDS011;28673;44.412;11.918;2023-08-17T01:43:53;15.57;;;11.02;;
43048;SDS011;28673;44.412;11.918;2023-08-17T01:46:21;15.85;;;11.05;;
43048;SDS011;28673;44.412;11.918;2023-08-17T01:48:47;13.88;;;11.38;;
43048;SDS011;28673;44.412;11.918;2023-08-17T01:51:22;15.52;;;11.35;;
43048;SDS011;28673;44.412;11.918;2023-08-17T01:53:48;14.52;;;11.30;;
43048;SDS011;28673;44.412;11.918;2023-08-17T01:56:14;14.05;;;11.70;;
43048;SDS011;28673;44.412;11.918;2023-08-17T01:58:40;17.23;;;12.32;;
43048;SDS011;28673;44.412;11.918;2023-08-17T02:01:06;12.77;;;11.35;;
43048;SDS011;28673;44.412;11.918;2023-08-17T02:03:31;14.40;;;11.52;;
43048;SDS011;28673;44.412;11.918;2023-08-17T02:05:58;16.80;;;11.68;;
43048;SDS011;28673;44.412;11.918;2023-08-17T02:08:24;17.45;;;12.25;;
43048;SDS011;28673;44.412;11.918;2023-08-17T02:10:52;13.85;;;12.02;;
43048;SDS011;28673;44.412;11.918;2023-08-17T02:13:20;13.48;;;11.70;;
43048;SDS011;28673;44.412;11.918;2023-08-17T02:15:46;12.95;;;11.48;;
43048;SDS011;28673;44.412;11.918;2023-08-17T02:18:12;12.65;;;10.93;;
43048;SDS011;28673;44.412;11.918;2023-08-17T02:20:38;13.55;;;10.80;;
43048;SDS011;28673;44.412;11.918;2023-08-17T02:23:04;15.77;;;11.57;;
43048;SDS011;28673;44.412;11.918;2023-08-17T02:25:30;12.43;;;11.13;;
43048;SDS011;28673;44.412;11.918;2023-08-17T02:28:03;14.23;;;11.05;;
43048;SDS011;28673;44.412;11.918;2023-08-17T02:30:29;17.70;;;11.45;;
43048;SDS011;28673;44.412;11.918;2023-08-17T02:32:57;13.60;;;11.43;;
43048;SDS011;28673;44.412;11.918;2023-08-17T02:35:23;15.05;;;12.23;;
43048;SDS011;28673;44.412;11.918;2023-08-17T02:37:49;13.90;;;11.13;;
43048;SDS011;28673;44.412;11.918;2023-08-17T02:40:15;18.00;;;12.10;;
43048;SDS011;28673;44.412;11.918;2023-08-17T02:42:41;16.83;;;11.05;;
43048;SDS011;28673;44.412;11.918;2023-08-17T02:45:08;13.98;;;10.93;;
43048;SDS011;28673;44.412;11.918;2023-08-17T02:47:34;15.88;;;12.18;;
43048;SDS011;28673;44.412;11.918;2023-08-17T02:50:00;18.60;;;11.93;;
43048;SDS011;28673;44.412;11.918;2023-08-17T02:52:26;16.25;;;11.45;;
43048;SDS011;28673;44.412;11.918;2023-08-17T02:54:52;12.68;;;11.32;;
43048;SDS011;28673;44.412;11.918;2023-08-17T02:57:18;16.88;;;11.98;;
43048;SDS011;28673;44.412;11.918;2023-08-17T02:59:45;11.27;;;10.02;;
43048;SDS011;28673;44.412;11.918;2023-08-17T03:02:11;12.90;;;11.52;;
43048;SDS011;28673;44.412;11.918;2023-08-17T03:04:37;14.20;;;12.02;;
43048;SDS011;28673;44.412;11.918;2023-08-17T03:07:03;13.43;;;11.52;;
43048;SDS011;28673;44.412;11.918;2023-08-17T03:09:29;18.88;;;12.45;;
43048;SDS011;28673;44.412;11.918;2023-08-17T03:11:55;13.50;;;11.88;;
43048;SDS011;28673;44.412;11.918;2023-08-17T03:14:21;17.10;;;13.10;;
43048;SDS011;28673;44.412;11.918;2023-08-17T03:16:47;13.63;;;12.23;;
43048;SDS011;28673;44.412;11.918;2023-08-17T03:19:14;14.35;;;11.88;;
43048;SDS011;28673;44.412;11.918;2023-08-17T03:21:42;16.15;;;12.10;;
43048;SDS011;28673;44.412;11.918;2023-08-17T03:24:08;16.75;;;13.02;;
43048;SDS011;28673;44.412;11.918;2023-08-17T03:26:34;14.90;;;11.98;;
43048;SDS011;28673;44.412;11.918;2023-08-17T03:29:00;13.95;;;11.75;;
43048;SDS011;28673;44.412;11.918;2023-08-17T03:31:26;16.65;;;13.02;;
43048;SDS011;28673;44.412;11.918;2023-08-17T03:33:52;19.00;;;12.95;;
43048;SDS011;28673;44.412;11.918;2023-08-17T03:36:20;13.63;;;12.20;;
43048;SDS011;28673;44.412;11.918;2023-08-17T03:38:46;14.32;;;11.02;;
43048;SDS011;28673;44.412;11.918;2023-08-17T03:41:12;14.25;;;11.95;;
43048;SDS011;28673;44.412;11.918;2023-08-17T03:43:37;14.50;;;12.43;;
43048;SDS011;28673;44.412;11.918;2023-08-17T03:46:04;17.67;;;13.32;;
43048;SDS011;28673;44.412;11.918;2023-08-17T03:48:30;13.32;;;11.70;;
43048;SDS011;28673;44.412;11.918;2023-08-17T03:50:56;19.38;;;13.45;;
43048;SDS011;28673;44.412;11.918;2023-08-17T03:53:22;17.73;;;13.02;;
43048;SDS011;28673;44.412;11.918;2023-08-17T03:55:49;16.90;;;11.82;;
43048;SDS011;28673;44.412;11.918;2023-08-17T03:58:16;17.17;;;12.25;;
43048;SDS011;28673;44.412;11.918;2023-08-17T04:00:50;17.23;;;13.00;;
43048;SDS011;28673;44.412;11.918;2023-08-17T04:03:20;14.02;;;11.55;;
43048;SDS011;28673;44.412;11.918;2023-08-17T04:05:46;19.23;;;13.90;;
43048;SDS011;28673;44.412;11.918;2023-08-17T04:08:12;14.40;;;12.43;;
43048;SDS011;28673;44.412;11.918;2023-08-17T04:10:38;16.73;;;12.70;;
43048;SDS011;28673;44.412;11.918;2023-08-17T04:13:04;20.85;;;13.25;;
43048;SDS011;28673;44.412;11.918;2023-08-17T04:15:30;17.42;;;12.55;;
43048;SDS011;28673;44.412;11.918;2023-08-17T04:17:56;16.73;;;12.88;;
43048;SDS011;28673;44.412;11.918;2023-08-17T04:20:22;16.73;;;12.90;;
43048;SDS011;28673;44.412;11.918;2023-08-17T04:22:48;16.27;;;13.35;;
43048;SDS011;28673;44.412;11.918;2023-08-17T04:25:14;18.92;;;13.25;;
43048;SDS011;28673;44.412;11.918;2023-08-17T04:27:40;16.77;;;12.88;;
43048;SDS011;28673;44.412;11.918;2023-08-17T04:30:06;15.55;;;12.45;;
43048;SDS011;28673;44.412;11.918;2023-08-17T04:32:42;23.35;;;13.50;;
43048;SDS011;28673;44.412;11.918;2023-08-17T04:35:08;16.40;;;12.80;;
43048;SDS011;28673;44.412;11.918;2023-08-17T04:37:35;19.88;;;14.13;;
43048;SDS011;28673;44.412;11.918;2023-08-17T04:40:01;16.02;;;12.65;;
43048;SDS011;28673;44.412;11.918;2023-08-17T04:42:27;18.92;;;13.05;;
43048;SDS011;28673;44.412;11.918;2023-08-17T04:44:53;18.60;;;12.52;;
43048;SDS011;28673;44.412;11.918;2023-08-17T04:47:19;16.80;;;13.27;;
43048;SDS011;28673;44.412;11.918;2023-08-17T04:49:45;20.17;;;13.48;;
43048;SDS011;28673;44.412;11.918;2023-08-17T04:52:11;16.77;;;13.05;;
43048;SDS011;28673;44.412;11.918;2023-08-17T04:54:37;16.60;;;13.18;;
43048;SDS011;28673;44.412;11.918;2023-08-17T04:57:03;17.17;;;13.60;;
43048;SDS011;28673;44.412;11.918;2023-08-17T04:59:30;23.23;;;13.75;;
43048;SDS011;28673;44.412;11.918;2023-08-17T05:01:56;14.98;;;12.75;;
43048;SDS011;28673;44.412;11.918;2023-08-17T05:04:22;16.70;;;13.15;;
43048;SDS011;28673;44.412;11.918;2023-08-17T05:06:48;15.98;;;12.48;;
43048;SDS011;28673;44.412;11.918;2023-08-17T05:09:14;18.02;;;12.70;;
43048;SDS011;28673;44.412;11.918;2023-08-17T05:11:40;21.70;;;13.27;;
43048;SDS011;28673;44.412;11.918;2023-08-17T05:14:06;18.95;;;15.25;;
43048;SDS011;28673;44.412;11.918;2023-08-17T05:16:32;20.05;;;15.50;;
43048;SDS011;28673;44.412;11.918;2023-08-17T05:18:58;16.95;;;13.95;;
43048;SDS011;28673;44.412;11.918;2023-08-17T05:21:25;19.90;;;13.85;;
43048;SDS011;28673;44.412;11.918;2023-08-17T05:23:51;24.38;;;18.23;;
43048;SDS011;28673;44.412;11.918;2023-08-17T05:26:17;25.05;;;16.15;;
43048;SDS011;28673;44.412;11.918;2023-08-17T05:28:43;23.80;;;15.40;;
43048;SDS011;28673;44.412;11.918;2023-08-17T05:31:10;27.35;;;13.95;;
43048;SDS011;28673;44.412;11.918;2023-08-17T05:33:40;18.33;;;16.15;;
43048;SDS011;28673;44.412;11.918;2023-08-17T05:36:07;15.77;;;14.18;;
43048;SDS011;28673;44.412;11.918;2023-08-17T05:38:33;16.98;;;14.07;;
43048;SDS011;28673;44.412;11.918;2023-08-17T05:40:59;19.15;;;14.93;;
43048;SDS011;28673;44.412;11.918;2023-08-17T05:43:25;18.80;;;15.93;;
43048;SDS011;28673;44.412;11.918;2023-08-17T05:45:51;26.90;;;17.33;;
43048;SDS011;28673;44.412;11.918;2023-08-17T05:48:21;23.55;;;16.00;;
43048;SDS011;28673;44.412;11.918;2023-08-17T05:50:47;20.02;;;16.08;;
43048;SDS011;28673;44.412;11.918;2023-08-17T05:53:13;24.95;;;15.82;;
43048;SDS011;28673;44.412;11.918;2023-08-17T05:55:39;19.50;;;15.25;;
43048;SDS011;28673;44.412;11.918;2023-08-17T05:58:05;18.77;;;16.35;;
43048;SDS011;28673;44.412;11.918;2023-08-17T06:00:30;24.48;;;15.40;;
43048;SDS011;28673;44.412;11.918;2023-08-17T06:02:56;18.30;;;15.00;;
43048;SDS011;28673;44.412;11.918;2023-08-17T06:05:29;16.38;;;14.23;;
43048;SDS011;28673;44.412;11.918;2023-08-17T06:07:55;19.10;;;15.35;;
43048;SDS011;28673;44.412;11.918;2023-08-17T06:10:22;22.15;;;15.88;;
43048;SDS011;28673;44.412;11.918;2023-08-17T06:12:52;20.25;;;14.90;;
43048;SDS011;28673;44.412;11.918;2023-08-17T06:15:18;20.75;;;14.98;;
43048;SDS011;28673;44.412;11.918;2023-08-17T06:17:44;17.88;;;14.52;;
43048;SDS011;28673;44.412;11.918;2023-08-17T06:20:11;16.95;;;13.65;;
43048;SDS011;28673;44.412;11.918;2023-08-17T06:22:37;17.45;;;13.75;;
43048;SDS011;28673;44.412;11.918;2023-08-17T06:25:04;14.75;;;12.23;;
43048;SDS011;28673;44.412;11.918;2023-08-17T06:27:31;18.35;;;13.70;;
43048;SDS011;28673;44.412;11.918;2023-08-17T06:29:58;16.63;;;12.07;;
43048;SDS011;28673;44.412;11.918;2023-08-17T06:32:24;16.75;;;13.40;;
43048;SDS011;28673;44.412;11.918;2023-08-17T06:34:50;17.30;;;14.38;;
43048;SDS011;28673;44.412;11.918;2023-08-17T06:37:16;15.43;;;12.82;;
43048;SDS011;28673;44.412;11.918;2023-08-17T06:39:42;19.42;;;13.98;;
43048;SDS011;28673;44.412;11.918;2023-08-17T06:42:08;19.90;;;13.23;;
43048;SDS011;28673;44.412;11.918;2023-08-17T06:44:33;18.45;;;13.93;;
43048;SDS011;28673;44.412;11.918;2023-08-17T06:46:59;14.82;;;13.25;;
43048;SDS011;28673;44.412;11.918;2023-08-17T06:49:26;16.85;;;14.20;;
43048;SDS011;28673;44.412;11.918;2023-08-17T06:51:52;19.90;;;12.95;;
43048;SDS011;28673;44.412;11.918;2023-08-17T06:54:18;16.70;;;11.93;;
43048;SDS011;28673;44.412;11.918;2023-08-17T06:56:44;14.40;;;12.90;;
43048;SDS011;28673;44.412;11.918;2023-08-17T06:59:10;15.73;;;11.95;;
43048;SDS011;28673;44.412;11.918;2023-08-17T07:01:37;15.65;;;13.20;;
43048;SDS011;28673;44.412;11.918;2023-08-17T07:04:03;25.92;;;13.15;;
43048;SDS011;28673;44.412;11.918;2023-08-17T07:06:29;15.38;;;12.68;;
43048;SDS011;28673;44.412;11.918;2023-08-17T07:08:55;14.27;;;12.75;;
43048;SDS011;28673;44.412;11.918;2023-08-17T07:11:21;14.52;;;12.43;;
43048;SDS011;28673;44.412;11.918;2023-08-17T07:13:47;21.90;;;12.85;;
43048;SDS011;28673;44.412;11.918;2023-08-17T07:16:13;18.38;;;13.60;;
43048;SDS011;28673;44.412;11.918;2023-08-17T07:18:39;18.42;;;12.65;;
43048;SDS011;28673;44.412;11.918;2023-08-17T07:21:05;15.02;;;13.43;;
43048;SDS011;28673;44.412;11.918;2023-08-17T07:23:31;22.65;;;14.73;;
43048;SDS011;28673;44.412;11.918;2023-08-17T07:25:57;17.30;;;13.15;;
43048;SDS011;28673;44.412;11.918;2023-08-17T07:28:23;18.55;;;12.43;;
43048;SDS011;28673;44.412;11.918;2023-08-17T07:30:49;15.43;;;12.55;;
43048;SDS011;28673;44.412;11.918;2023-08-17T07:33:15;19.08;;;13.20;;
43048;SDS011;28673;44.412;11.918;2023-08-17T07:35:41;17.02;;;12.60;;
43048;SDS011;28673;44.412;11.918;2023-08-17T07:38:07;14.23;;;11.60;;
43048;SDS011;28673;44.412;11.918;2023-08-17T07:40:32;20.55;;;11.05;;
43048;SDS011;28673;44.412;11.918;2023-08-17T07:42:58;12.77;;;11.30;;
43048;SDS011;28673;44.412;11.918;2023-08-17T07:45:24;12.82;;;11.02;;
43048;SDS011;28673;44.412;11.918;2023-08-17T07:47:50;12.98;;;10.40;;
43048;SDS011;28673;44.412;11.918;2023-08-17T07:50:16;12.20;;;10.88;;
43048;SDS011;28673;44.412;11.918;2023-08-17T07:52:42;14.57;;;11.13;;
43048;SDS011;28673;44.412;11.918;2023-08-17T07:55:08;14.02;;;10.50;;
43048;SDS011;28673;44.412;11.918;2023-08-17T07:57:34;18.50;;;10.85;;
43048;SDS011;28673;44.412;11.918;2023-08-17T07:59:59;12.65;;;10.23;;
43048;SDS011;28673;44.412;11.918;2023-08-17T08:02:25;18.70;;;10.70;;
43048;SDS011;28673;44.412;11.918;2023-08-17T08:04:51;18.10;;;9.70;;
43048;SDS011;28673;44.412;11.918;2023-08-17T08:07:17;10.75;;;9.65;;
43048;SDS011;28673;44.412;11.918;2023-08-17T08:09:43;22.02;;;10.15;;
43048;SDS011;28673;44.412;11.918;2023-08-17T08:12:09;13.23;;;9.68;;
43048;SDS011;28673;44.412;11.918;2023-08-17T08:14:35;12.25;;;9.75;;
43048;SDS011;28673;44.412;11.918;2023-08-17T08:17:01;15.10;;;9.73;;
43048;SDS011;28673;44.412;11.918;2023-08-17T08:19:27;10.82;;;9.70;;
43048;SDS011;28673;44.412;11.918;2023-08-17T08:21:52;11.50;;;8.52;;
43048;SDS011;28673;44.412;11.918;2023-08-17T08:24:18;11.48;;;9.45;;
43048;SDS011;28673;44.412;11.918;2023-08-17T08:26:44;10.30;;;8.50;;
43048;SDS011;28673;44.412;11.918;2023-08-17T08:29:10;12.38;;;8.43;;
43048;SDS011;28673;44.412;11.918;2023-08-17T08:31:36;10.85;;;8.65;;
43048;SDS011;28673;44.412;11.918;2023-08-17T08:34:02;16.85;;;9.95;;
43048;SDS011;28673;44.412;11.918;2023-08-17T08:36:28;11.07;;;8.65;;
43048;SDS011;28673;44.412;11.918;2023-08-17T08:38:53;10.02;;;9.02;;
43048;SDS011;28673;44.412;11.918;2023-08-17T08:41:19;11.10;;;7.78;;
43048;SDS011;28673;44.412;11.918;2023-08-17T08:43:46;10.15;;;7.55;;
43048;SDS011;28673;44.412;11.918;2023-08-17T08:46:12;15.60;;;7.88;;
43048;SDS011;28673;44.412;11.918;2023-08-17T08:48:41;14.70;;;8.80;;
43048;SDS011;28673;44.412;11.918;2023-08-17T08:51:08;9.27;;;7.75;;
43048;SDS011;28673;44.412;11.918;2023-08-17T08:53:39;12.65;;;7.25;;
43048;SDS011;28673;44.412;11.918;2023-08-17T08:56:13;19.10;;;9.73;;
43048;SDS011;28673;44.412;11.918;2023-08-17T08:58:44;9.00;;;6.43;;
43048;SDS011;28673;44.412;11.918;2023-08-17T09:01:11;8.18;;;7.38;;
43048;SDS011;28673;44.412;11.918;2023-08-17T09:03:38;11.23;;;6.53;;
43048;SDS011;28673;44.412;11.918;2023-08-17T09:06:04;7.63;;;6.82;;
43048;SDS011;28673;44.412;11.918;2023-08-17T09:08:30;9.07;;;6.22;;
43048;SDS011;28673;44.412;11.918;2023-08-17T09:10:56;8.50;;;7.07;;
43048;SDS011;28673;44.412;11.918;2023-08-17T09:13:23;9.98;;;6.72;;
43048;SDS011;28673;44.412;11.918;2023-08-17T09:15:49;8.10;;;7.30;;
43048;SDS011;28673;44.412;11.918;2023-08-17T09:18:15;8.75;;;7.18;;
43048;SDS011;28673;44.412;11.918;2023-08-17T09:20:46;8.75;;;6.88;;
43048;SDS011;28673;44.412;11.918;2023-08-17T09:23:19;11.13;;;7.03;;
43048;SDS011;28673;44.412;11.918;2023-08-17T09:25:46;8.35;;;6.72;;
43048;SDS011;28673;44.412;11.918;2023-08-17T09:28:15;7.53;;;6.43;;
43048;SDS011;28673;44.412;11.918;2023-08-17T09:30:56;6.60;;;6.00;;
43048;SDS011;28673;44.412;11.918;2023-08-17T09:33:24;7.70;;;6.72;;
43048;SDS011;28673;44.412;11.918;2023-08-17T09:35:51;10.05;;;6.68;;
43048;SDS011;28673;44.412;11.918;2023-08-17T09:38:19;11.25;;;7.63;;
43048;SDS011;28673;44.412;11.918;2023-08-17T09:40:45;8.77;;;7.63;;
43048;SDS011;28673;44.412;11.918;2023-08-17T09:43:11;16.10;;;7.57;;
43048;SDS011;28673;44.412;11.918;2023-08-17T09:45:39;7.07;;;5.97;;
43048;SDS011;28673;44.412;11.918;2023-08-17T09:48:05;7.80;;;6.55;;
43048;SDS011;28673;44.412;11.918;2023-08-17T09:50:33;11.20;;;5.70;;
43048;SDS011;28673;44.412;11.918;2023-08-17T09:53:03;7.60;;;6.70;;
43048;SDS011;28673;44.412;11.918;2023-08-17T09:55:30;11.80;;;6.37;;
43048;SDS011;28673;44.412;11.918;2023-08-17T09:57:59;8.52;;;5.53;;
43048;SDS011;28673;44.412;11.918;2023-08-17T10:00:26;7.72;;;5.72;;
43048;SDS011;28673;44.412;11.918;2023-08-17T10:02:53;8.88;;;5.68;;
43048;SDS011;28673;44.412;11.918;2023-08-17T10:05:20;7.13;;;5.70;;
43048;SDS011;28673;44.412;11.918;2023-08-17T10:07:49;7.05;;;5.78;;
43048;SDS011;28673;44.412;11.918;2023-08-17T10:10:22;18.38;;;6.13;;
43048;SDS011;28673;44.412;11.918;2023-08-17T10:13:10;7.20;;;6.05;;
43048;SDS011;28673;44.412;11.918;2023-08-17T10:21:28;6.80;;;6.07;;
43048;SDS011;28673;44.412;11.918;2023-08-17T10:23:57;8.98;;;6.10;;
43048;SDS011;28673;44.412;11.918;2023-08-17T10:26:23;8.70;;;6.53;;
43048;SDS011;28673;44.412;11.918;2023-08-17T10:28:51;12.05;;;5.38;;
43048;SDS011;28673;44.412;11.918;2023-08-17T10:31:17;6.50;;;5.15;;
43048;SDS011;28673;44.412;11.918;2023-08-17T10:33:44;9.32;;;4.90;;
43048;SDS011;28673;44.412;11.918;2023-08-17T10:36:12;8.90;;;5.72;;
43048;SDS011;28673;44.412;11.918;2023-08-17T10:38:40;9.50;;;5.72;;
43048;SDS011;28673;44.412;11.918;2023-08-17T10:41:12;11.38;;;5.88;;
43048;SDS011;28673;44.412;11.918;2023-08-17T10:43:55;11.25;;;5.60;;
43048;SDS011;28673;44.412;11.918;2023-08-17T10:46:31;8.40;;;6.10;;
43048;SDS011;28673;44.412;11.918;2023-08-17T10:49:05;7.95;;;5.03;;
43048;SDS011;28673;44.412;11.918;2023-08-17T10:51:35;5.60;;;5.03;;
43048;SDS011;28673;44.412;11.918;2023-08-17T10:54:01;12.85;;;5.07;;
43048;SDS011;28673;44.412;11.918;2023-08-17T10:56:29;6.68;;;5.20;;
43048;SDS011;28673;44.412;11.918;2023-08-17T10:59:04;5.65;;;4.43;;
43048;SDS011;28673;44.412;11.918;2023-08-17T11:01:51;12.70;;;5.25;;
43048;SDS011;28673;44.412;11.918;2023-08-17T11:04:17;4.78;;;4.38;;
43048;SDS011;28673;44.412;11.918;2023-08-17T11:06:44;5.85;;;4.47;;
43048;SDS011;28673;44.412;11.918;2023-08-17T11:09:10;6.85;;;4.80;;
43048;SDS011;28673;44.412;11.918;2023-08-17T11:11:36;5.82;;;4.97;;
43048;SDS011;28673;44.412;11.918;2023-08-17T11:14:02;4.30;;;3.90;;
43048;SDS011;28673;44.412;11.918;2023-08-17T11:16:28;5.63;;;4.43;;
43048;SDS011;28673;44.412;11.918;2023-08-17T11:18:54;5.43;;;3.95;;
43048;SDS011;28673;44.412;11.918;2023-08-17T11:21:23;4.53;;;4.10;;
43048;SDS011;28673;44.412;11.918;2023-08-17T11:23:49;5.68;;;4.90;;
43048;SDS011;28673;44.412;11.918;2023-08-17T11:26:19;8.52;;;5.00;;
43048;SDS011;28673;44.412;11.918;2023-08-17T11:28:45;8.65;;;5.10;;
43048;SDS011;28673;44.412;11.918;2023-08-17T11:31:12;5.38;;;4.45;;
43048;SDS011;28673;44.412;11.918;2023-08-17T11:33:40;5.40;;;4.55;;
43048;SDS011;28673;44.412;11.918;2023-08-17T11:36:07;6.88;;;4.30;;
43048;SDS011;28673;44.412;11.918;2023-08-17T11:38:34;3.95;;;3.63;;
43048;SDS011;28673;44.412;11.918;2023-08-17T11:41:09;8.45;;;4.55;;
43048;SDS011;28673;44.412;11.918;2023-08-17T11:43:35;5.20;;;4.10;;
43048;SDS011;28673;44.412;11.918;2023-08-17T11:46:02;3.80;;;3.50;;
43048;SDS011;28673;44.412;11.918;2023-08-17T11:48:30;6.80;;;4.38;;
43048;SDS011;28673;44.412;11.918;2023-08-17T11:51:00;10.98;;;4.55;;
43048;SDS011;28673;44.412;11.918;2023-08-17T11:53:35;7.10;;;3.63;;
43048;SDS011;28673;44.412;11.918;2023-08-17T11:56:02;7.32;;;4.20;;
43048;SDS011;28673;44.412;11.918;2023-08-17T11:58:43;4.63;;;3.60;;
43048;SDS011;28673;44.412;11.918;2023-08-17T12:01:12;5.10;;;4.20;;
43048;SDS011;28673;44.412;11.918;2023-08-17T12:03:38;4.28;;;3.60;;
43048;SDS011;28673;44.412;11.918;2023-08-17T12:06:06;4.97;;;4.50;;
43048;SDS011;28673;44.412;11.918;2023-08-17T12:08:32;5.95;;;5.15;;
43048;SDS011;28673;44.412;11.918;2023-08-17T12:10:58;5.05;;;4.50;;
43048;SDS011;28673;44.412;11.918;2023-08-17T12:13:34;14.00;;;4.50;;
43048;SDS011;28673;44.412;11.918;2023-08-17T12:16:00;6.63;;;5.00;;
43048;SDS011;28673;44.412;11.918;2023-08-17T12:18:26;8.48;;;4.45;;
43048;SDS011;28673;44.412;11.918;2023-08-17T12:20:53;7.63;;;4.63;;
43048;SDS011;28673;44.412;11.918;2023-08-17T12:23:19;7.70;;;4.78;;
43048;SDS011;28673;44.412;11.918;2023-08-17T12:25:45;9.43;;;4.95;;
43048;SDS011;28673;44.412;11.918;2023-08-17T12:28:17;5.55;;;4.65;;
43048;SDS011;28673;44.412;11.918;2023-08-17T12:30:42;5.93;;;4.80;;
43048;SDS011;28673;44.412;11.918;2023-08-17T12:33:08;14.95;;;5.20;;
43048;SDS011;28673;44.412;11.918;2023-08-17T12:35:34;5.47;;;4.13;;
43048;SDS011;28673;44.412;11.918;2023-08-17T12:38:00;8.15;;;4.15;;
43048;SDS011;28673;44.412;11.918;2023-08-17T12:40:26;5.78;;;4.70;;
43048;SDS011;28673;44.412;11.918;2023-08-17T12:42:52;5.13;;;4.63;;
43048;SDS011;28673;44.412;11.918;2023-08-17T12:45:18;5.13;;;4.25;;
43048;SDS011;28673;44.412;11.918;2023-08-17T12:47:44;4.82;;;4.28;;
43048;SDS011;28673;44.412;11.918;2023-08-17T12:50:09;7.65;;;4.18;;
43048;SDS011;28673;44.412;11.918;2023-08-17T12:52:35;5.93;;;4.57;;
43048;SDS011;28673;44.412;11.918;2023-08-17T12:55:01;5.55;;;5.03;;
43048;SDS011;28673;44.412;11.918;2023-08-17T12:57:27;8.07;;;4.18;;
43048;SDS011;28673;44.412;11.918;2023-08-17T12:59:53;15.45;;;4.15;;
43048;SDS011;28673;44.412;11.918;2023-08-17T13:02:20;11.55;;;4.30;;
43048;SDS011;28673;44.412;11.918;2023-08-17T13:04:46;5.00;;;4.53;;
43048;SDS011;28673;44.412;11.918;2023-08-17T13:07:12;5.85;;;4.07;;
43048;SDS011;28673;44.412;11.918;2023-08-17T13:09:38;6.28;;;4.25;;
43048;SDS011;28673;44.412;11.918;2023-08-17T13:12:03;6.57;;;4.38;;
43048;SDS011;28673;44.412;11.918;2023-08-17T13:14:29;4.95;;;4.28;;
43048;SDS011;28673;44.412;11.918;2023-08-17T13:16:55;5.80;;;4.43;;
43048;SDS011;28673;44.412;11.918;2023-08-17T13:19:21;5.32;;;4.40;;
43048;SDS011;28673;44.412;11.918;2023-08-17T13:21:47;5.32;;;4.70;;
43048;SDS011;28673;44.412;11.918;2023-08-17T13:24:13;9.63;;;4.53;;
43048;SDS011;28673;44.412;11.918;2023-08-17T13:26:39;6.07;;;4.95;;
43048;SDS011;28673;44.412;11.918;2023-08-17T13:29:05;5.00;;;4.57;;
43048;SDS011;28673;44.412;11.918;2023-08-17T13:31:31;5.78;;;4.07;;
43048;SDS011;28673;44.412;11.918;2023-08-17T13:33:56;4.68;;;4.28;;
43048;SDS011;28673;44.412;11.918;2023-08-17T13:36:22;6.90;;;4.57;;
43048;SDS011;28673;44.412;11.918;2023-08-17T13:38:48;7.95;;;4.80;;
43048;SDS011;28673;44.412;11.918;2023-08-17T13:41:14;6.18;;;5.20;;
43048;SDS011;28673;44.412;11.918;2023-08-17T13:43:40;11.77;;;5.03;;
43048;SDS011;28673;44.412;11.918;2023-08-17T13:46:06;7.57;;;4.18;;
43048;SDS011;28673;44.412;11.918;2023-08-17T13:48:32;5.35;;;4.53;;
43048;SDS011;28673;44.412;11.918;2023-08-17T13:50:58;9.10;;;4.55;;
43048;SDS011;28673;44.412;11.918;2023-08-17T13:53:24;13.30;;;5.18;;
43048;SDS011;28673;44.412;11.918;2023-08-17T13:55:49;10.60;;;5.18;;
43048;SDS011;28673;44.412;11.918;2023-08-17T13:58:15;5.85;;;5.25;;
43048;SDS011;28673;44.412;11.918;2023-08-17T14:00:42;10.30;;;6.20;;
43048;SDS011;28673;44.412;11.918;2023-08-17T14:03:08;7.93;;;5.80;;
43048;SDS011;28673;44.412;11.918;2023-08-17T14:05:33;13.43;;;6.95;;
43048;SDS011;28673;44.412;11.918;2023-08-17T14:08:00;8.10;;;6.00;;
43048;SDS011;28673;44.412;11.918;2023-08-17T14:10:26;14.30;;;5.90;;
43048;SDS011;28673;44.412;11.918;2023-08-17T14:12:51;13.68;;;6.00;;
43048;SDS011;28673;44.412;11.918;2023-08-17T14:15:17;12.95;;;6.15;;
43048;SDS011;28673;44.412;11.918;2023-08-17T14:17:43;11.38;;;5.72;;
43048;SDS011;28673;44.412;11.918;2023-08-17T14:20:09;11.10;;;6.28;;
43048;SDS011;28673;44.412;11.918;2023-08-17T14:22:36;11.48;;;6.15;;
43048;SDS011;28673;44.412;11.918;2023-08-17T14:25:02;12.18;;;5.65;;